Briefing drone pour La ferte-saint-aubin

Rechercher une autre localisation

Conditions de vol :


Nous sommes le : Samedi 31 juillet 2021
Il est 21:11 UTC (23:11 LT)

Lever de soleil : 04:02 UTC (06:02 LT)
Coucher de soleil : 19:54 UTC (21:54 LT)

Météo

L'essentiel des conditions de vol

VIGILANCE MÉTÉO FRANCE - Loiret (45)
Pas de vigilances particulieres
METAR de LFOJ
LFOJ 312100Z AUTO 28006KT 9999 SCT048 14/10 Q1012

Date d'émission: 31/07/2021
Heure d'émission: 21:00 UTC
Vent: 280° pour 6 KT (11 km/h)
Visibilité horizontale: > 10 km
Plafond :
- Nuages épars à 4800ft (1463m)
Température: 14 °C
Point de rosée: 10 °C
Humidité: 77%
Pression (QNH): 1012 hPa
TAF de LFOJ
LFOJ 310725Z 3107/0103 CNL

Conditions prévues :

Heure d'émission : Bulletin éffectué le 31 à 07:00 UTC
Prévision : Valide du 31 a 07:00 UTC au 01 a 03:00 UTC
Nuages : à 0ft (0 m)
WEBCAM POUR LA FERTE-SAINT-AUBIN

Réglementation

Voler en sécurité

CARTES AERONAUTIQUE 1/500.000
CARTES VAC (LFOJ)
SUP AIP




Chargement des AIP...
NOTAM (LA FERTE-SAINT-AUBIN + Terrain à proximité / FIR )




Chargement des NOTAMS...
CONTACT PREFECTURE 45


Avertissement : Les données mises à disposition sont indicatives. Oxygène Drone ne pourra être tenu responsable de dégâts causés aux biens et aux personnes.